sensor_id;sensor_type;location;lat;lon;timestamp;temperature;humidity
61896;DHT22;47835;52.778;5.956;2023-12-07T00:01:48;0.20;99.90
61896;DHT22;47835;52.778;5.956;2023-12-07T00:04:14;0.20;99.90
61896;DHT22;47835;52.778;5.956;2023-12-07T00:06:39;0.10;99.90
61896;DHT22;47835;52.778;5.956;2023-12-07T00:09:05;0.10;99.90
61896;DHT22;47835;52.778;5.956;2023-12-07T00:11:31;0.10;99.90
61896;DHT22;47835;52.778;5.956;2023-12-07T00:13:56;0.20;99.90
61896;DHT22;47835;52.778;5.956;2023-12-07T00:16:22;0.20;99.90
61896;DHT22;47835;52.778;5.956;2023-12-07T00:18:47;0.20;99.90
61896;DHT22;47835;52.778;5.956;2023-12-07T00:21:13;0.30;99.90
61896;DHT22;47835;52.778;5.956;2023-12-07T00:23:39;0.30;99.90
61896;DHT22;47835;52.778;5.956;2023-12-07T00:26:04;0.30;99.90
61896;DHT22;47835;52.778;5.956;2023-12-07T00:28:30;0.40;99.90
61896;DHT22;47835;52.778;5.956;2023-12-07T00:30:56;0.40;99.90
61896;DHT22;47835;52.778;5.956;2023-12-07T00:33:22;0.50;99.90
61896;DHT22;47835;52.778;5.956;2023-12-07T00:35:48;0.50;99.90
61896;DHT22;47835;52.778;5.956;2023-12-07T00:38:14;0.50;99.90
61896;DHT22;47835;52.778;5.956;2023-12-07T00:40:39;0.40;99.90
61896;DHT22;47835;52.778;5.956;2023-12-07T00:43:06;0.40;99.90
61896;DHT22;47835;52.778;5.956;2023-12-07T00:45:32;0.40;99.90
61896;DHT22;47835;52.778;5.956;2023-12-07T00:47:58;0.40;99.90
61896;DHT22;47835;52.778;5.956;2023-12-07T00:50:23;0.40;99.90
61896;DHT22;47835;52.778;5.956;2023-12-07T00:52:49;0.40;99.90
61896;DHT22;47835;52.778;5.956;2023-12-07T00:55:14;0.50;99.90
61896;DHT22;47835;52.778;5.956;2023-12-07T00:57:40;0.50;99.90
61896;DHT22;47835;52.778;5.956;2023-12-07T01:00:06;0.50;99.90
61896;DHT22;47835;52.778;5.956;2023-12-07T01:02:33;0.50;99.90
61896;DHT22;47835;52.778;5.956;2023-12-07T01:04:59;0.50;99.90
61896;DHT22;47835;52.778;5.956;2023-12-07T01:07:25;0.40;99.90
61896;DHT22;47835;52.778;5.956;2023-12-07T01:09:50;0.40;99.90
61896;DHT22;47835;52.778;5.956;2023-12-07T01:12:16;0.40;99.90
61896;DHT22;47835;52.778;5.956;2023-12-07T01:14:42;0.30;99.90
61896;DHT22;47835;52.778;5.956;2023-12-07T01:17:07;0.30;99.90
61896;DHT22;47835;52.778;5.956;2023-12-07T01:19:33;0.20;99.90
61896;DHT22;47835;52.778;5.956;2023-12-07T01:21:59;0.30;99.90
61896;DHT22;47835;52.778;5.956;2023-12-07T01:24:25;0.30;99.90
61896;DHT22;47835;52.778;5.956;2023-12-07T01:26:50;0.20;99.90
61896;DHT22;47835;52.778;5.956;2023-12-07T01:29:16;0.20;99.90
61896;DHT22;47835;52.778;5.956;2023-12-07T01:31:43;0.30;99.90
61896;DHT22;47835;52.778;5.956;2023-12-07T01:34:09;0.20;99.90
61896;DHT22;47835;52.778;5.956;2023-12-07T01:36:35;0.30;99.90
61896;DHT22;47835;52.778;5.956;2023-12-07T01:39:00;0.30;99.90
61896;DHT22;47835;52.778;5.956;2023-12-07T01:41:26;0.30;99.90
61896;DHT22;47835;52.778;5.956;2023-12-07T01:43:51;0.30;99.90
61896;DHT22;47835;52.778;5.956;2023-12-07T01:46:17;0.30;99.90
61896;DHT22;47835;52.778;5.956;2023-12-07T01:48:43;0.30;99.90
61896;DHT22;47835;52.778;5.956;2023-12-07T01:51:10;0.30;99.90
61896;DHT22;47835;52.778;5.956;2023-12-07T01:53:39;0.30;99.90
61896;DHT22;47835;52.778;5.956;2023-12-07T01:56:05;0.30;99.90
61896;DHT22;47835;52.778;5.956;2023-12-07T01:58:32;0.30;99.90
61896;DHT22;47835;52.778;5.956;2023-12-07T02:00:57;0.30;99.90
61896;DHT22;47835;52.778;5.956;2023-12-07T02:03:23;0.30;99.90
61896;DHT22;47835;52.778;5.956;2023-12-07T02:05:49;0.30;99.90
61896;DHT22;47835;52.778;5.956;2023-12-07T02:08:16;0.40;99.90
61896;DHT22;47835;52.778;5.956;2023-12-07T02:10:42;0.30;99.90
61896;DHT22;47835;52.778;5.956;2023-12-07T02:13:08;0.30;99.90
61896;DHT22;47835;52.778;5.956;2023-12-07T02:15:34;0.30;99.90
61896;DHT22;47835;52.778;5.956;2023-12-07T02:18:27;0.30;99.90
61896;DHT22;47835;52.778;5.956;2023-12-07T02:23:47;0.30;99.90
61896;DHT22;47835;52.778;5.956;2023-12-07T02:26:18;0.30;99.90
61896;DHT22;47835;52.778;5.956;2023-12-07T02:28:45;0.20;99.90
61896;DHT22;47835;52.778;5.956;2023-12-07T02:31:11;0.30;99.90
61896;DHT22;47835;52.778;5.956;2023-12-07T02:33:37;0.20;99.90
61896;DHT22;47835;52.778;5.956;2023-12-07T02:36:03;0.10;99.90
61896;DHT22;47835;52.778;5.956;2023-12-07T02:38:29;0.20;99.90
61896;DHT22;47835;52.778;5.956;2023-12-07T02:40:55;0.20;99.90
61896;DHT22;47835;52.778;5.956;2023-12-07T02:43:22;0.20;99.90
61896;DHT22;47835;52.778;5.956;2023-12-07T02:45:48;0.20;99.90
61896;DHT22;47835;52.778;5.956;2023-12-07T02:48:14;0.30;99.90
61896;DHT22;47835;52.778;5.956;2023-12-07T02:50:40;0.30;99.90
61896;DHT22;47835;52.778;5.956;2023-12-07T02:53:05;0.20;99.90
61896;DHT22;47835;52.778;5.956;2023-12-07T02:55:31;0.30;99.90
61896;DHT22;47835;52.778;5.956;2023-12-07T02:57:57;0.30;99.90
61896;DHT22;47835;52.778;5.956;2023-12-07T03:00:22;0.30;99.90
61896;DHT22;47835;52.778;5.956;2023-12-07T03:02:48;0.30;99.90
61896;DHT22;47835;52.778;5.956;2023-12-07T03:05:16;0.20;99.90
61896;DHT22;47835;52.778;5.956;2023-12-07T03:07:41;0.20;99.90
61896;DHT22;47835;52.778;5.956;2023-12-07T03:10:07;0.20;99.90
61896;DHT22;47835;52.778;5.956;2023-12-07T03:12:33;0.20;99.90
61896;DHT22;47835;52.778;5.956;2023-12-07T03:14:58;0.20;99.90
61896;DHT22;47835;52.778;5.956;2023-12-07T03:17:24;0.20;99.90
61896;DHT22;47835;52.778;5.956;2023-12-07T03:19:50;0.10;99.90
61896;DHT22;47835;52.778;5.956;2023-12-07T03:22:15;0.10;99.90
61896;DHT22;47835;52.778;5.956;2023-12-07T03:24:50;0.00;99.90
61896;DHT22;47835;52.778;5.956;2023-12-07T03:27:16;0.10;99.90
61896;DHT22;47835;52.778;5.956;2023-12-07T03:29:42;0.10;99.90
61896;DHT22;47835;52.778;5.956;2023-12-07T03:32:07;0.00;99.90
61896;DHT22;47835;52.778;5.956;2023-12-07T03:34:33;0.10;99.90
61896;DHT22;47835;52.778;5.956;2023-12-07T03:36:59;0.10;99.90
61896;DHT22;47835;52.778;5.956;2023-12-07T03:39:24;0.00;99.90
61896;DHT22;47835;52.778;5.956;2023-12-07T03:41:51;0.10;99.90
61896;DHT22;47835;52.778;5.956;2023-12-07T03:44:17;0.00;99.90
61896;DHT22;47835;52.778;5.956;2023-12-07T03:46:42;0.00;99.90
61896;DHT22;47835;52.778;5.956;2023-12-07T03:49:08;0.00;99.90
61896;DHT22;47835;52.778;5.956;2023-12-07T03:51:34;-0.10;99.90
61896;DHT22;47835;52.778;5.956;2023-12-07T03:54:02;-0.10;99.90
61896;DHT22;47835;52.778;5.956;2023-12-07T03:56:29;-0.10;99.90
61896;DHT22;47835;52.778;5.956;2023-12-07T03:58:55;-0.20;99.90
61896;DHT22;47835;52.778;5.956;2023-12-07T04:01:26;-0.10;99.90
61896;DHT22;47835;52.778;5.956;2023-12-07T04:03:53;-0.10;99.90
61896;DHT22;47835;52.778;5.956;2023-12-07T04:06:20;-0.20;99.90
61896;DHT22;47835;52.778;5.956;2023-12-07T04:08:46;-0.10;99.90
61896;DHT22;47835;52.778;5.956;2023-12-07T04:11:13;-0.10;99.90
61896;DHT22;47835;52.778;5.956;2023-12-07T04:13:38;-0.10;99.90
61896;DHT22;47835;52.778;5.956;2023-12-07T04:16:04;-0.10;99.90
61896;DHT22;47835;52.778;5.956;2023-12-07T04:18:31;-0.10;99.90
61896;DHT22;47835;52.778;5.956;2023-12-07T04:20:56;-0.10;99.90
61896;DHT22;47835;52.778;5.956;2023-12-07T04:23:22;-0.10;99.90
61896;DHT22;47835;52.778;5.956;2023-12-07T04:25:47;-0.10;99.90
61896;DHT22;47835;52.778;5.956;2023-12-07T04:28:13;-0.10;99.90
61896;DHT22;47835;52.778;5.956;2023-12-07T04:30:39;0.00;99.90
61896;DHT22;47835;52.778;5.956;2023-12-07T04:33:05;0.00;99.90
61896;DHT22;47835;52.778;5.956;2023-12-07T04:35:31;-0.10;99.90
61896;DHT22;47835;52.778;5.956;2023-12-07T04:37:57;-0.10;99.90
61896;DHT22;47835;52.778;5.956;2023-12-07T04:40:25;-0.20;99.90
61896;DHT22;47835;52.778;5.956;2023-12-07T04:42:51;-0.20;99.90
61896;DHT22;47835;52.778;5.956;2023-12-07T04:45:16;-0.20;99.90
61896;DHT22;47835;52.778;5.956;2023-12-07T04:47:42;-0.20;99.90
61896;DHT22;47835;52.778;5.956;2023-12-07T04:50:08;-0.20;99.90
61896;DHT22;47835;52.778;5.956;2023-12-07T04:52:35;-0.30;99.90
61896;DHT22;47835;52.778;5.956;2023-12-07T04:55:01;-0.30;99.90
61896;DHT22;47835;52.778;5.956;2023-12-07T04:57:27;-0.30;99.90
61896;DHT22;47835;52.778;5.956;2023-12-07T04:59:52;-0.40;99.90
61896;DHT22;47835;52.778;5.956;2023-12-07T05:02:18;-0.40;99.90
61896;DHT22;47835;52.778;5.956;2023-12-07T05:04:44;-0.40;99.90
61896;DHT22;47835;52.778;5.956;2023-12-07T05:07:11;-0.50;99.90
61896;DHT22;47835;52.778;5.956;2023-12-07T05:09:38;-0.40;99.90
61896;DHT22;47835;52.778;5.956;2023-12-07T05:12:04;-0.50;99.90
61896;DHT22;47835;52.778;5.956;2023-12-07T05:14:31;-0.50;99.90
61896;DHT22;47835;52.778;5.956;2023-12-07T05:16:57;-0.60;99.90
61896;DHT22;47835;52.778;5.956;2023-12-07T05:19:23;-0.50;99.90
61896;DHT22;47835;52.778;5.956;2023-12-07T05:21:49;-0.50;99.90
61896;DHT22;47835;52.778;5.956;2023-12-07T05:24:15;-0.40;99.90
61896;DHT22;47835;52.778;5.956;2023-12-07T05:26:44;-0.30;99.90
61896;DHT22;47835;52.778;5.956;2023-12-07T05:29:17;-0.40;99.90
61896;DHT22;47835;52.778;5.956;2023-12-07T05:31:43;-0.40;99.90
61896;DHT22;47835;52.778;5.956;2023-12-07T05:34:09;-0.40;99.90
61896;DHT22;47835;52.778;5.956;2023-12-07T05:36:34;-0.40;99.90
61896;DHT22;47835;52.778;5.956;2023-12-07T05:39:00;-0.40;99.90
61896;DHT22;47835;52.778;5.956;2023-12-07T05:41:26;-0.40;99.90
61896;DHT22;47835;52.778;5.956;2023-12-07T05:43:52;-0.40;99.90
61896;DHT22;47835;52.778;5.956;2023-12-07T05:46:19;-0.50;99.90
61896;DHT22;47835;52.778;5.956;2023-12-07T05:48:44;-0.40;99.90
61896;DHT22;47835;52.778;5.956;2023-12-07T05:51:14;-0.50;99.90
61896;DHT22;47835;52.778;5.956;2023-12-07T05:53:40;-0.60;99.90
61896;DHT22;47835;52.778;5.956;2023-12-07T05:56:06;-0.70;99.90
61896;DHT22;47835;52.778;5.956;2023-12-07T05:58:32;-0.70;99.90
61896;DHT22;47835;52.778;5.956;2023-12-07T06:00:58;-0.70;99.90
61896;DHT22;47835;52.778;5.956;2023-12-07T06:03:25;-0.80;99.90
61896;DHT22;47835;52.778;5.956;2023-12-07T06:05:51;-0.70;99.90
61896;DHT22;47835;52.778;5.956;2023-12-07T06:08:17;-0.80;99.90
61896;DHT22;47835;52.778;5.956;2023-12-07T06:10:42;-0.80;99.90
61896;DHT22;47835;52.778;5.956;2023-12-07T06:13:08;-0.80;99.90
61896;DHT22;47835;52.778;5.956;2023-12-07T06:15:34;-0.80;99.90
61896;DHT22;47835;52.778;5.956;2023-12-07T06:17:59;-0.80;99.90
61896;DHT22;47835;52.778;5.956;2023-12-07T06:20:25;-0.90;99.90
61896;DHT22;47835;52.778;5.956;2023-12-07T06:22:51;-0.90;99.90
61896;DHT22;47835;52.778;5.956;2023-12-07T06:25:16;-0.90;99.90
61896;DHT22;47835;52.778;5.956;2023-12-07T06:27:42;-0.90;99.90
61896;DHT22;47835;52.778;5.956;2023-12-07T06:30:08;-0.90;99.90
61896;DHT22;47835;52.778;5.956;2023-12-07T06:32:34;-1.00;99.90
61896;DHT22;47835;52.778;5.956;2023-12-07T06:35:00;-0.90;99.90
61896;DHT22;47835;52.778;5.956;2023-12-07T06:37:26;-1.00;99.90
61896;DHT22;47835;52.778;5.956;2023-12-07T06:39:52;-1.00;99.90
61896;DHT22;47835;52.778;5.956;2023-12-07T06:42:17;-1.10;99.90
61896;DHT22;47835;52.778;5.956;2023-12-07T06:44:46;-1.10;99.90
61896;DHT22;47835;52.778;5.956;2023-12-07T06:47:11;-1.10;99.90
61896;DHT22;47835;52.778;5.956;2023-12-07T06:49:37;-1.20;99.90
61896;DHT22;47835;52.778;5.956;2023-12-07T06:52:03;-1.20;99.90
61896;DHT22;47835;52.778;5.956;2023-12-07T06:54:28;-1.20;99.90
61896;DHT22;47835;52.778;5.956;2023-12-07T06:56:54;-1.20;99.90
61896;DHT22;47835;52.778;5.956;2023-12-07T06:59:20;-1.20;99.90
61896;DHT22;47835;52.778;5.956;2023-12-07T07:01:46;-1.20;99.90
61896;DHT22;47835;52.778;5.956;2023-12-07T07:04:11;-1.20;99.90
61896;DHT22;47835;52.778;5.956;2023-12-07T07:06:39;-1.20;99.90
61896;DHT22;47835;52.778;5.956;2023-12-07T07:09:05;-1.30;99.90
61896;DHT22;47835;52.778;5.956;2023-12-07T07:11:30;-1.30;99.90
61896;DHT22;47835;52.778;5.956;2023-12-07T07:13:56;-1.30;99.90
61896;DHT22;47835;52.778;5.956;2023-12-07T07:16:22;-1.30;99.90
61896;DHT22;47835;52.778;5.956;2023-12-07T07:18:47;-1.30;99.90
61896;DHT22;47835;52.778;5.956;2023-12-07T07:21:13;-1.30;99.90
61896;DHT22;47835;52.778;5.956;2023-12-07T07:23:38;-1.30;99.90
61896;DHT22;47835;52.778;5.956;2023-12-07T07:26:04;-1.30;99.90
61896;DHT22;47835;52.778;5.956;2023-12-07T07:28:30;-1.30;99.90
61896;DHT22;47835;52.778;5.956;2023-12-07T07:30:55;-1.30;99.90
61896;DHT22;47835;52.778;5.956;2023-12-07T07:33:21;-1.30;99.90
61896;DHT22;47835;52.778;5.956;2023-12-07T07:35:47;-1.40;99.90
61896;DHT22;47835;52.778;5.956;2023-12-07T07:38:12;-1.40;99.90
61896;DHT22;47835;52.778;5.956;2023-12-07T07:40:39;-1.40;99.90
61896;DHT22;47835;52.778;5.956;2023-12-07T07:43:05;-1.30;99.90
61896;DHT22;47835;52.778;5.956;2023-12-07T07:45:31;-1.30;99.90
61896;DHT22;47835;52.778;5.956;2023-12-07T07:47:57;-1.30;99.90
61896;DHT22;47835;52.778;5.956;2023-12-07T07:50:22;-1.30;99.90
61896;DHT22;47835;52.778;5.956;2023-12-07T07:52:48;-1.30;99.90
61896;DHT22;47835;52.778;5.956;2023-12-07T07:55:13;-1.30;99.90
61896;DHT22;47835;52.778;5.956;2023-12-07T07:57:39;-1.30;99.90
61896;DHT22;47835;52.778;5.956;2023-12-07T08:00:05;-1.30;99.90
61896;DHT22;47835;52.778;5.956;2023-12-07T08:02:33;-1.30;99.90
61896;DHT22;47835;52.778;5.956;2023-12-07T08:04:59;-1.30;99.90
61896;DHT22;47835;52.778;5.956;2023-12-07T08:07:25;-1.30;99.90
61896;DHT22;47835;52.778;5.956;2023-12-07T08:09:50;-1.20;99.90
61896;DHT22;47835;52.778;5.956;2023-12-07T08:12:16;-1.30;99.90
61896;DHT22;47835;52.778;5.956;2023-12-07T08:14:42;-1.20;99.90
61896;DHT22;47835;52.778;5.956;2023-12-07T08:17:09;-1.20;99.90
61896;DHT22;47835;52.778;5.956;2023-12-07T08:19:36;-1.20;99.90
61896;DHT22;47835;52.778;5.956;2023-12-07T08:22:01;-1.20;99.90
61896;DHT22;47835;52.778;5.956;2023-12-07T08:24:27;-1.20;99.90
61896;DHT22;47835;52.778;5.956;2023-12-07T08:26:53;-1.20;99.90
61896;DHT22;47835;52.778;5.956;2023-12-07T08:29:18;-1.20;99.90
61896;DHT22;47835;52.778;5.956;2023-12-07T08:31:44;-1.20;99.90
61896;DHT22;47835;52.778;5.956;2023-12-07T08:34:10;-1.20;99.90
61896;DHT22;47835;52.778;5.956;2023-12-07T08:36:35;-1.10;99.90
61896;DHT22;47835;52.778;5.956;2023-12-07T08:39:04;-1.10;99.90
61896;DHT22;47835;52.778;5.956;2023-12-07T08:49:43;-0.90;99.90
61896;DHT22;47835;52.778;5.956;2023-12-07T08:52:08;-0.80;99.90
61896;DHT22;47835;52.778;5.956;2023-12-07T08:54:52;-0.80;99.90
61896;DHT22;47835;52.778;5.956;2023-12-07T08:57:20;-0.60;99.90
61896;DHT22;47835;52.778;5.956;2023-12-07T08:59:46;-0.50;99.90
61896;DHT22;47835;52.778;5.956;2023-12-07T09:02:11;-0.50;99.90
61896;DHT22;47835;52.778;5.956;2023-12-07T09:04:37;-0.30;99.90
61896;DHT22;47835;52.778;5.956;2023-12-07T09:07:05;-0.30;99.90
61896;DHT22;47835;52.778;5.956;2023-12-07T09:09:32;-0.30;99.90
61896;DHT22;47835;52.778;5.956;2023-12-07T09:11:58;-0.20;99.90
61896;DHT22;47835;52.778;5.956;2023-12-07T09:14:23;-0.10;99.90
61896;DHT22;47835;52.778;5.956;2023-12-07T09:20:11;0.10;99.90
61896;DHT22;47835;52.778;5.956;2023-12-07T09:22:43;0.10;99.90
61896;DHT22;47835;52.778;5.956;2023-12-07T09:25:09;0.10;99.90
61896;DHT22;47835;52.778;5.956;2023-12-07T09:27:36;0.20;99.90
61896;DHT22;47835;52.778;5.956;2023-12-07T09:30:09;0.20;99.90
61896;DHT22;47835;52.778;5.956;2023-12-07T09:32:39;0.20;99.90
61896;DHT22;47835;52.778;5.956;2023-12-07T09:35:12;0.20;99.90
61896;DHT22;47835;52.778;5.956;2023-12-07T09:38:14;0.20;99.90
61896;DHT22;47835;52.778;5.956;2023-12-07T09:40:56;0.20;99.90
61896;DHT22;47835;52.778;5.956;2023-12-07T09:43:22;0.10;99.90
61896;DHT22;47835;52.778;5.956;2023-12-07T09:45:52;0.00;99.90
61896;DHT22;47835;52.778;5.956;2023-12-07T09:48:21;0.00;99.90
61896;DHT22;47835;52.778;5.956;2023-12-07T09:50:47;0.00;99.90
61896;DHT22;47835;52.778;5.956;2023-12-07T09:53:28;0.00;99.90
61896;DHT22;47835;52.778;5.956;2023-12-07T09:56:11;0.00;99.90
61896;DHT22;47835;52.778;5.956;2023-12-07T09:58:39;-0.10;99.90
61896;DHT22;47835;52.778;5.956;2023-12-07T10:01:12;0.00;99.90
61896;DHT22;47835;52.778;5.956;2023-12-07T10:04:19;0.00;99.90
61896;DHT22;47835;52.778;5.956;2023-12-07T10:07:31;0.00;99.90
61896;DHT22;47835;52.778;5.956;2023-12-07T10:10:33;0.00;99.90
61896;DHT22;47835;52.778;5.956;2023-12-07T10:13:08;0.00;99.90
61896;DHT22;47835;52.778;5.956;2023-12-07T10:16:17;-0.10;99.90
61896;DHT22;47835;52.778;5.956;2023-12-07T10:18:47;-0.10;99.90
61896;DHT22;47835;52.778;5.956;2023-12-07T10:21:15;-0.10;99.90
61896;DHT22;47835;52.778;5.956;2023-12-07T10:23:44;0.00;99.90
61896;DHT22;47835;52.778;5.956;2023-12-07T10:26:16;-0.10;99.90
61896;DHT22;47835;52.778;5.956;2023-12-07T10:28:57;0.00;99.90
61896;DHT22;47835;52.778;5.956;2023-12-07T10:31:27;-0.10;99.90
61896;DHT22;47835;52.778;5.956;2023-12-07T10:34:03;-0.10;99.90
61896;DHT22;47835;52.778;5.956;2023-12-07T10:41:04;0.00;99.90
61896;DHT22;47835;52.778;5.956;2023-12-07T10:43:43;0.00;99.90
61896;DHT22;47835;52.778;5.956;2023-12-07T10:46:14;0.00;99.90
61896;DHT22;47835;52.778;5.956;2023-12-07T10:48:45;0.00;99.90
61896;DHT22;47835;52.778;5.956;2023-12-07T10:54:02;0.00;99.90
61896;DHT22;47835;52.778;5.956;2023-12-07T10:56:46;0.10;99.90
61896;DHT22;47835;52.778;5.956;2023-12-07T10:59:12;0.10;99.90
61896;DHT22;47835;52.778;5.956;2023-12-07T11:01:40;0.10;99.90
61896;DHT22;47835;52.778;5.956;2023-12-07T11:04:22;0.10;99.90
61896;DHT22;47835;52.778;5.956;2023-12-07T11:06:55;0.10;99.90
61896;DHT22;47835;52.778;5.956;2023-12-07T11:09:27;0.10;99.90
61896;DHT22;47835;52.778;5.956;2023-12-07T11:12:17;0.10;99.90
61896;DHT22;47835;52.778;5.956;2023-12-07T11:14:58;0.20;99.90
61896;DHT22;47835;52.778;5.956;2023-12-07T11:17:27;0.20;99.90
61896;DHT22;47835;52.778;5.956;2023-12-07T11:19:56;0.20;99.90
61896;DHT22;47835;52.778;5.956;2023-12-07T11:25:42;0.20;99.90
61896;DHT22;47835;52.778;5.956;2023-12-07T11:28:52;0.30;99.90
61896;DHT22;47835;52.778;5.956;2023-12-07T11:31:28;0.30;99.90
61896;DHT22;47835;52.778;5.956;2023-12-07T11:38:11;0.30;99.90
61896;DHT22;47835;52.778;5.956;2023-12-07T11:41:10;0.30;99.90
61896;DHT22;47835;52.778;5.956;2023-12-07T11:51:04;0.40;99.90
61896;DHT22;47835;52.778;5.956;2023-12-07T12:01:38;0.40;99.90
61896;DHT22;47835;52.778;5.956;2023-12-07T12:04:54;0.40;99.90
61896;DHT22;47835;52.778;5.956;2023-12-07T12:07:50;0.40;99.90
61896;DHT22;47835;52.778;5.956;2023-12-07T12:14:48;0.40;99.90
61896;DHT22;47835;52.778;5.956;2023-12-07T12:17:58;0.40;99.90
61896;DHT22;47835;52.778;5.956;2023-12-07T12:21:31;0.40;99.90
61896;DHT22;47835;52.778;5.956;2023-12-07T12:25:11;0.40;99.90
61896;DHT22;47835;52.778;5.956;2023-12-07T12:53:34;0.50;99.90
61896;DHT22;47835;52.778;5.956;2023-12-07T12:59:26;0.50;99.90
61896;DHT22;47835;52.778;5.956;2023-12-07T13:02:40;0.50;99.90
61896;DHT22;47835;52.778;5.956;2023-12-07T13:05:30;0.50;99.90
61896;DHT22;47835;52.778;5.956;2023-12-07T13:08:03;0.50;99.90
61896;DHT22;47835;52.778;5.956;2023-12-07T13:14:19;0.60;99.90
61896;DHT22;47835;52.778;5.956;2023-12-07T13:20:26;0.60;99.90
61896;DHT22;47835;52.778;5.956;2023-12-07T13:29:39;0.60;99.90
61896;DHT22;47835;52.778;5.956;2023-12-07T13:32:39;0.60;99.90
61896;DHT22;47835;52.778;5.956;2023-12-07T13:35:08;0.60;99.90
61896;DHT22;47835;52.778;5.956;2023-12-07T13:38:13;0.70;99.90
61896;DHT22;47835;52.778;5.956;2023-12-07T13:41:10;0.70;99.90
61896;DHT22;47835;52.778;5.956;2023-12-07T13:44:07;0.70;99.90
61896;DHT22;47835;52.778;5.956;2023-12-07T13:50:36;0.70;99.90
61896;DHT22;47835;52.778;5.956;2023-12-07T13:53:52;0.70;99.90
61896;DHT22;47835;52.778;5.956;2023-12-07T13:56:27;0.70;99.90
61896;DHT22;47835;52.778;5.956;2023-12-07T14:02:34;0.80;99.90
61896;DHT22;47835;52.778;5.956;2023-12-07T14:05:14;0.80;99.90
61896;DHT22;47835;52.778;5.956;2023-12-07T14:07:50;0.80;99.90
61896;DHT22;47835;52.778;5.956;2023-12-07T14:13:59;0.90;99.90
61896;DHT22;47835;52.778;5.956;2023-12-07T14:24:24;0.80;99.90
61896;DHT22;47835;52.778;5.956;2023-12-07T14:27:25;0.80;99.90
61896;DHT22;47835;52.778;5.956;2023-12-07T14:31:07;1.00;99.90
61896;DHT22;47835;52.778;5.956;2023-12-07T14:37:22;0.90;99.90
61896;DHT22;47835;52.778;5.956;2023-12-07T14:40:23;0.90;99.90
61896;DHT22;47835;52.778;5.956;2023-12-07T14:43:15;0.90;99.90
61896;DHT22;47835;52.778;5.956;2023-12-07T14:46:05;0.90;99.90
61896;DHT22;47835;52.778;5.956;2023-12-07T14:48:44;1.00;99.90
61896;DHT22;47835;52.778;5.956;2023-12-07T14:55:29;1.00;99.90
61896;DHT22;47835;52.778;5.956;2023-12-07T14:59:16;1.10;99.90
61896;DHT22;47835;52.778;5.956;2023-12-07T15:01:59;1.00;99.90
61896;DHT22;47835;52.778;5.956;2023-12-07T15:04:47;1.00;99.90
61896;DHT22;47835;52.778;5.956;2023-12-07T15:10:24;1.10;99.90
61896;DHT22;47835;52.778;5.956;2023-12-07T15:17:17;1.00;99.90
61896;DHT22;47835;52.778;5.956;2023-12-07T15:20:15;1.10;99.90
61896;DHT22;47835;52.778;5.956;2023-12-07T15:30:13;1.10;99.90
61896;DHT22;47835;52.778;5.956;2023-12-07T15:33:08;1.20;99.90
61896;DHT22;47835;52.778;5.956;2023-12-07T15:39:22;1.10;99.90
61896;DHT22;47835;52.778;5.956;2023-12-07T15:42:24;1.10;99.90
61896;DHT22;47835;52.778;5.956;2023-12-07T15:45:51;1.30;99.90
61896;DHT22;47835;52.778;5.956;2023-12-07T15:52:17;1.30;99.90
61896;DHT22;47835;52.778;5.956;2023-12-07T15:55:09;1.20;99.90
61896;DHT22;47835;52.778;5.956;2023-12-07T16:05:04;1.30;99.90
61896;DHT22;47835;52.778;5.956;2023-12-07T16:11:32;1.40;99.90
61896;DHT22;47835;52.778;5.956;2023-12-07T16:14:48;1.50;99.90
61896;DHT22;47835;52.778;5.956;2023-12-07T16:17:56;1.50;99.90
61896;DHT22;47835;52.778;5.956;2023-12-07T16:20:55;1.50;99.90
61896;DHT22;47835;52.778;5.956;2023-12-07T16:27:26;1.50;99.90
61896;DHT22;47835;52.778;5.956;2023-12-07T16:29:55;1.60;99.90
61896;DHT22;47835;52.778;5.956;2023-12-07T16:36:26;1.60;99.90
61896;DHT22;47835;52.778;5.956;2023-12-07T16:42:23;1.70;99.90
61896;DHT22;47835;52.778;5.956;2023-12-07T16:44:52;1.80;99.90
61896;DHT22;47835;52.778;5.956;2023-12-07T16:47:35;1.80;99.90
61896;DHT22;47835;52.778;5.956;2023-12-07T16:50:02;1.70;99.90
61896;DHT22;47835;52.778;5.956;2023-12-07T16:52:28;1.80;99.90
61896;DHT22;47835;52.778;5.956;2023-12-07T16:59:00;1.80;99.90
61896;DHT22;47835;52.778;5.956;2023-12-07T17:02:04;1.90;99.90
61896;DHT22;47835;52.778;5.956;2023-12-07T17:04:54;1.80;99.90
61896;DHT22;47835;52.778;5.956;2023-12-07T17:07:42;2.00;99.90
61896;DHT22;47835;52.778;5.956;2023-12-07T17:10:25;2.00;99.90
61896;DHT22;47835;52.778;5.956;2023-12-07T17:12:51;2.00;99.90
61896;DHT22;47835;52.778;5.956;2023-12-07T17:15:33;2.10;99.90
61896;DHT22;47835;52.778;5.956;2023-12-07T17:18:34;2.00;99.90
61896;DHT22;47835;52.778;5.956;2023-12-07T17:21:13;2.00;99.90
61896;DHT22;47835;52.778;5.956;2023-12-07T17:23:51;2.00;99.90
61896;DHT22;47835;52.778;5.956;2023-12-07T17:26:52;2.00;99.90
61896;DHT22;47835;52.778;5.956;2023-12-07T17:29:32;2.00;99.90
61896;DHT22;47835;52.778;5.956;2023-12-07T17:32:06;2.00;99.90
61896;DHT22;47835;52.778;5.956;2023-12-07T17:34:51;2.00;99.90
61896;DHT22;47835;52.778;5.956;2023-12-07T17:37:33;2.00;99.90
61896;DHT22;47835;52.778;5.956;2023-12-07T17:40:15;1.90;99.90
61896;DHT22;47835;52.778;5.956;2023-12-07T17:43:05;2.00;99.90
61896;DHT22;47835;52.778;5.956;2023-12-07T17:45:50;1.90;99.90
61896;DHT22;47835;52.778;5.956;2023-12-07T17:52:02;1.80;99.90
61896;DHT22;47835;52.778;5.956;2023-12-07T17:54:44;1.80;99.90
61896;DHT22;47835;52.778;5.956;2023-12-07T17:57:19;1.80;99.90
61896;DHT22;47835;52.778;5.956;2023-12-07T18:00:04;1.70;99.90
61896;DHT22;47835;52.778;5.956;2023-12-07T18:03:06;1.70;99.90
61896;DHT22;47835;52.778;5.956;2023-12-07T18:06:44;1.70;99.90
61896;DHT22;47835;52.778;5.956;2023-12-07T18:09:32;1.70;99.90
61896;DHT22;47835;52.778;5.956;2023-12-07T18:12:44;1.70;99.90
61896;DHT22;47835;52.778;5.956;2023-12-07T18:18:20;1.70;99.90
61896;DHT22;47835;52.778;5.956;2023-12-07T18:21:05;1.60;99.90
61896;DHT22;47835;52.778;5.956;2023-12-07T18:31:54;1.60;99.90
61896;DHT22;47835;52.778;5.956;2023-12-07T18:35:15;1.60;99.90
61896;DHT22;47835;52.778;5.956;2023-12-07T18:37:42;1.60;99.90
61896;DHT22;47835;52.778;5.956;2023-12-07T18:40:40;1.60;99.90
61896;DHT22;47835;52.778;5.956;2023-12-07T18:44:00;1.60;99.90
61896;DHT22;47835;52.778;5.956;2023-12-07T18:46:43;1.50;99.90
61896;DHT22;47835;52.778;5.956;2023-12-07T18:51:59;1.50;99.90
61896;DHT22;47835;52.778;5.956;2023-12-07T18:54:56;1.60;99.90
61896;DHT22;47835;52.778;5.956;2023-12-07T18:57:54;1.60;99.90
61896;DHT22;47835;52.778;5.956;2023-12-07T19:00:46;1.50;99.90
61896;DHT22;47835;52.778;5.956;2023-12-07T19:03:35;1.50;99.90
61896;DHT22;47835;52.778;5.956;2023-12-07T19:06:20;1.60;99.90
61896;DHT22;47835;52.778;5.956;2023-12-07T19:09:13;1.60;99.90
61896;DHT22;47835;52.778;5.956;2023-12-07T19:12:04;1.60;99.90
61896;DHT22;47835;52.778;5.956;2023-12-07T19:14:58;1.60;99.90
61896;DHT22;47835;52.778;5.956;2023-12-07T19:17:52;1.60;99.90
61896;DHT22;47835;52.778;5.956;2023-12-07T19:24:06;1.60;99.90
61896;DHT22;47835;52.778;5.956;2023-12-07T19:26:54;1.60;99.90
61896;DHT22;47835;52.778;5.956;2023-12-07T19:29:42;1.60;99.90
61896;DHT22;47835;52.778;5.956;2023-12-07T19:32:32;1.60;99.90